Time;durP1;ratioP1;P1;durP2;ratioP2;P2;SDS_P1;SDS_P2;PMS_P1;PMS_P2;Temp;Humidity;BMP_temperature;BMP_pressure;BME280_temperature;BME280_humidity;BME280_pressure;Samples;Min_cycle;Max_cycle;Signal;HPM_P1;HPM_P2
2023/09/15 00:02:18;;;;;;;2.77;2.20;;;;;;;19.23;88.12;95731.47;4406759;32;20200;-64
2023/09/15 00:04:46;;;;;;;2.47;2.27;;;;;;;19.28;88.00;95732.37;4405913;32;20226;-64
2023/09/15 00:07:12;;;;;;;1.77;1.70;;;;;;;19.06;86.94;95729.03;4410104;32;20195;-64
2023/09/15 00:09:37;;;;;;;2.23;2.13;;;;;;;19.06;87.32;95733.63;4408936;32;20192;-64
2023/09/15 00:12:03;;;;;;;1.87;1.83;;;;;;;19.02;86.58;95724.66;4409272;32;20227;-64
2023/09/15 00:14:29;;;;;;;1.10;1.10;;;;;;;19.03;86.99;95729.69;4411355;32;20188;-64
2023/09/15 00:16:54;;;;;;;2.47;2.17;;;;;;;19.17;89.62;95716.69;4410789;32;20233;-64
2023/09/15 00:19:20;;;;;;;1.47;1.47;;;;;;;19.08;88.63;95721.41;4406522;32;20200;-64
2023/09/15 00:21:47;;;;;;;1.20;1.20;;;;;;;18.98;88.59;95721.84;4397613;32;20208;-62
2023/09/15 00:24:12;;;;;;;1.87;1.33;;;;;;;19.04;88.18;95711.66;4402293;32;20181;-63
2023/09/15 00:26:38;;;;;;;2.00;1.90;;;;;;;18.99;87.65;95711.88;4406618;32;20222;-62
2023/09/15 00:29:04;;;;;;;2.03;1.83;;;;;;;18.94;88.14;95720.16;4398436;32;20191;-63
2023/09/15 00:31:29;;;;;;;1.07;1.07;;;;;;;18.87;87.05;95715.38;4409673;32;20207;-62
2023/09/15 00:33:55;;;;;;;1.63;1.53;;;;;;;18.93;89.82;95718.59;4406249;32;20206;-62
2023/09/15 00:36:20;;;;;;;1.53;1.53;;;;;;;19.05;90.26;95719.38;4395305;32;20195;-62
2023/09/15 00:38:46;;;;;;;2.20;2.10;;;;;;;19.09;89.74;95712.22;4409974;32;20176;-63
2023/09/15 00:41:13;;;;;;;1.20;1.20;;;;;;;19.06;87.47;95712.09;4407278;32;20199;-63
2023/09/15 00:43:38;;;;;;;2.03;1.93;;;;;;;19.20;88.96;95713.31;4393347;32;20198;-63
2023/09/15 00:46:04;;;;;;;1.17;1.10;;;;;;;18.97;88.07;95717.59;4411916;32;20187;-63
2023/09/15 00:48:30;;;;;;;1.13;1.13;;;;;;;18.98;88.67;95716.47;4408107;32;20196;-63
2023/09/15 00:50:56;;;;;;;2.47;2.37;;;;;;;18.88;89.26;95714.25;4392029;32;20202;-62
2023/09/15 00:53:22;;;;;;;2.00;1.50;;;;;;;18.77;89.05;95715.78;4391974;32;20208;-63
2023/09/15 00:55:51;;;;;;;1.90;1.80;;;;;;;18.95;89.97;95711.75;4406081;32;20243;-62
2023/09/15 00:58:18;;;;;;;2.30;2.10;;;;;;;18.96;89.77;95707.94;4391759;32;20264;-62
2023/09/15 01:00:44;;;;;;;1.83;1.73;;;;;;;18.76;88.80;95711.53;4401993;32;20246;-62
2023/09/15 01:03:17;;;;;;;2.23;2.13;;;;;;;18.79;90.05;95713.56;4405743;32;20192;-62
2023/09/15 01:05:45;;;;;;;1.90;1.80;;;;;;;18.80;88.75;95704.38;4408783;32;20192;-63
2023/09/15 01:08:11;;;;;;;35.13;2.23;;;;;;;18.68;89.21;95707.84;4402833;32;20188;-62
2023/09/15 01:10:36;;;;;;;1.40;1.37;;;;;;;18.79;89.09;95692.06;4392095;32;20260;-63
2023/09/15 01:13:02;;;;;;;1.77;1.77;;;;;;;18.64;89.75;95703.47;4407259;32;20236;-62
2023/09/15 01:16:03;;;;;;;2.50;2.07;;;;;;;18.74;89.77;95700.34;4407691;32;20191;-62
2023/09/15 01:18:50;;;;;;;1.93;1.90;;;;;;;18.77;91.21;95699.66;4403898;32;20184;-63
2023/09/15 01:21:30;;;;;;;2.33;2.23;;;;;;;18.88;91.57;95698.12;4407689;32;20224;-63
2023/09/15 01:24:28;;;;;;;2.30;1.33;;;;;;;18.62;90.38;95700.34;4409314;32;20188;-62
2023/09/15 01:27:48;;;;;;;1.90;1.80;;;;;;;18.69;89.70;95698.69;4406272;32;20232;-62
2023/09/15 01:30:13;;;;;;;1.80;1.70;;;;;;;18.81;89.83;95695.19;4329826;32;20198;-63
2023/09/15 01:32:41;;;;;;;1.60;1.50;;;;;;;18.69;91.03;95703.25;4378493;32;20188;-62
2023/09/15 01:35:07;;;;;;;2.47;1.77;;;;;;;18.39;90.10;95698.03;4394089;32;20204;-63
2023/09/15 01:37:32;;;;;;;3.23;2.83;;;;;;;18.53;91.59;95692.34;4406547;32;20200;-63
2023/09/15 01:40:01;;;;;;;2.00;1.90;;;;;;;18.62;91.52;95694.97;4405035;32;20184;-62
2023/09/15 01:42:26;;;;;;;2.13;2.03;;;;;;;18.50;91.44;95696.47;4413623;32;20195;-62
2023/09/15 01:44:52;;;;;;;2.20;2.07;;;;;;;18.47;90.58;95691.78;4401510;32;20286;-62
2023/09/15 01:47:22;;;;;;;1.73;1.63;;;;;;;18.49;91.70;95689.56;4406567;32;20244;-63
2023/09/15 01:49:53;;;;;;;1.73;1.67;;;;;;;18.52;92.13;95688.88;4413066;32;20192;-62
2023/09/15 01:52:22;;;;;;;1.23;1.23;;;;;;;18.60;92.03;95689.13;4404842;32;20203;-63
2023/09/15 01:54:48;;;;;;;1.67;1.57;;;;;;;18.58;91.41;95694.03;4398245;32;20249;-63
2023/09/15 01:57:14;;;;;;;1.50;1.50;;;;;;;18.53;90.36;95687.75;4407131;32;20243;-62
2023/09/15 01:59:39;;;;;;;1.80;1.70;;;;;;;18.67;89.97;95686.69;4408871;32;20196;-63
2023/09/15 02:02:05;;;;;;;1.30;1.30;;;;;;;18.68;91.12;95690.94;4415674;32;20227;-63
2023/09/15 02:04:30;;;;;;;1.80;1.80;;;;;;;18.73;91.30;95683.41;4412240;32;20256;-62
2023/09/15 02:06:56;;;;;;;2.20;2.00;;;;;;;18.72;90.42;95676.47;4399765;32;20219;-62
2023/09/15 02:09:21;;;;;;;1.77;1.67;;;;;;;18.76;91.10;95677.38;4414827;32;20195;-62
2023/09/15 02:11:46;;;;;;;1.53;1.43;;;;;;;18.77;90.76;95675.47;4411294;32;20269;-62
2023/09/15 02:14:12;;;;;;;1.47;1.47;;;;;;;18.68;89.31;95680.97;4402532;32;20196;-62
2023/09/15 02:16:37;;;;;;;1.50;1.50;;;;;;;18.57;89.36;95681.72;4396377;32;20188;-63
2023/09/15 02:19:02;;;;;;;2.73;2.33;;;;;;;18.44;90.44;95679.03;4407932;32;20217;-63
2023/09/15 02:21:29;;;;;;;2.53;2.17;;;;;;;18.26;89.54;95682.25;4413488;32;20211;-63
2023/09/15 02:23:55;;;;;;;2.10;2.00;;;;;;;18.44;91.70;95673.66;4410290;32;20222;-63
2023/09/15 02:26:21;;;;;;;3.03;2.70;;;;;;;18.28;91.46;95680.78;4410288;32;20195;-62
2023/09/15 02:28:47;;;;;;;1.43;1.33;;;;;;;18.49;91.84;95678.03;4407296;32;20207;-62
2023/09/15 02:31:12;;;;;;;3.00;1.90;;;;;;;18.45;91.72;95671.75;4400352;32;20212;-63
2023/09/15 02:33:37;;;;;;;1.13;1.07;;;;;;;18.37;91.90;95681.47;4416488;32;20196;-62
2023/09/15 02:36:03;;;;;;;1.93;1.87;;;;;;;18.40;91.52;95680.81;4402668;32;20196;-63
2023/09/15 02:38:29;;;;;;;2.57;2.47;;;;;;;18.28;91.79;95675.41;4405937;32;20220;-62
2023/09/15 02:40:54;;;;;;;2.27;2.17;;;;;;;18.16;92.15;95675.38;4416858;32;20211;-62
2023/09/15 02:43:19;;;;;;;1.80;1.73;;;;;;;18.13;92.84;95676.81;4416938;32;20291;-62
2023/09/15 02:45:45;;;;;;;2.80;2.60;;;;;;;18.09;92.49;95673.22;4410941;32;20254;-62
2023/09/15 02:48:11;;;;;;;2.63;2.50;;;;;;;18.26;92.71;95674.19;4412450;32;20216;-62
2023/09/15 02:50:41;;;;;;;2.53;2.43;;;;;;;18.07;92.59;95677.38;4411635;32;20294;-62
2023/09/15 02:53:06;;;;;;;2.03;1.93;;;;;;;18.27;92.57;95671.16;4403226;32;20234;-63
2023/09/15 02:55:32;;;;;;;2.53;2.43;;;;;;;18.38;92.59;95671.50;4403561;32;20188;-62
2023/09/15 02:57:57;;;;;;;4.67;2.47;;;;;;;18.26;91.45;95669.59;4414299;32;20232;-63
2023/09/15 03:00:22;;;;;;;1.87;1.83;;;;;;;18.34;91.80;95667.91;4395138;32;20184;-63
2023/09/15 03:02:48;;;;;;;2.20;2.10;;;;;;;18.32;91.41;95670.13;4410677;32;20256;-62
2023/09/15 03:05:14;;;;;;;2.03;1.83;;;;;;;18.33;92.25;95669.81;4406049;32;20191;-62
2023/09/15 03:07:39;;;;;;;2.60;2.50;;;;;;;18.38;93.29;95666.91;4393303;32;20260;-62
2023/09/15 03:10:09;;;;;;;4.17;2.40;;;;;;;18.38;92.57;95666.91;4404412;32;20243;-63
2023/09/15 03:12:35;;;;;;;3.13;2.83;;;;;;;18.35;92.05;95666.78;4407711;32;20200;-63
2023/09/15 03:15:06;;;;;;;2.30;2.20;;;;;;;18.37;92.41;95662.66;4404686;32;20188;-62
2023/09/15 03:17:37;;;;;;;2.83;2.73;;;;;;;18.20;92.00;95657.50;4392677;32;20188;-62
2023/09/15 03:20:16;;;;;;;2.20;2.10;;;;;;;18.36;92.47;95663.78;4404386;32;20196;-62
2023/09/15 03:22:45;;;;;;;2.57;2.47;;;;;;;18.15;91.96;95658.47;4386662;32;20195;-62
2023/09/15 03:25:11;;;;;;;3.53;3.33;;;;;;;18.37;93.22;95664.56;4406158;32;20192;-62
2023/09/15 03:27:36;;;;;;;2.00;2.00;;;;;;;18.25;92.70;95659.19;4409851;32;20239;-62
2023/09/15 03:30:04;;;;;;;2.73;2.60;;;;;;;18.03;92.11;95658.47;4406827;32;20184;-62
2023/09/15 03:32:29;;;;;;;2.50;2.30;;;;;;;18.07;92.61;95659.38;4404955;32;20207;-62
2023/09/15 03:34:54;;;;;;;2.93;2.73;;;;;;;18.06;93.26;95660.50;4405378;32;20188;-62
2023/09/15 03:37:20;;;;;;;3.77;3.47;;;;;;;18.02;93.11;95658.78;4395942;32;20180;-62
2023/09/15 03:39:45;;;;;;;3.70;3.40;;;;;;;18.13;93.66;95654.56;4393999;32;20409;-62
2023/09/15 03:42:10;;;;;;;3.30;3.20;;;;;;;18.00;93.10;95652.97;4394365;32;20204;-62
2023/09/15 03:44:36;;;;;;;3.83;3.63;;;;;;;18.25;93.89;95651.91;4409496;32;20219;-62
2023/09/15 03:47:02;;;;;;;4.37;3.97;;;;;;;18.25;93.48;95656.50;4406783;32;20326;-62
2023/09/15 03:49:27;;;;;;;4.13;3.93;;;;;;;18.09;92.68;95653.66;4409576;32;20192;-62
2023/09/15 03:51:52;;;;;;;3.30;3.10;;;;;;;18.00;93.26;95656.44;4408390;32;20206;-62
2023/09/15 03:54:18;;;;;;;5.83;4.67;;;;;;;18.08;93.71;95658.22;4405153;32;20218;-62
2023/09/15 03:56:44;;;;;;;3.40;3.20;;;;;;;17.80;93.30;95650.00;4408321;32;20196;-62
2023/09/15 03:59:09;;;;;;;3.83;3.60;;;;;;;17.82;94.53;95644.31;4405432;32;20210;-62
2023/09/15 04:01:34;;;;;;;13.13;4.37;;;;;;;17.95;94.38;95647.81;4405955;32;20191;-62
2023/09/15 04:04:01;;;;;;;3.50;3.33;;;;;;;17.98;94.54;95645.25;4406465;32;20191;-62
2023/09/15 04:06:28;;;;;;;3.80;3.40;;;;;;;17.90;94.89;95650.69;4407010;32;20192;-62
2023/09/15 04:08:53;;;;;;;4.20;3.87;;;;;;;17.67;94.03;95643.00;4416973;32;20194;-62
2023/09/15 04:11:18;;;;;;;4.63;4.23;;;;;;;17.86;95.26;95637.19;4394687;32;20232;-62
2023/09/15 04:13:44;;;;;;;3.70;3.50;;;;;;;17.60;94.69;95642.75;4405380;32;20192;-62
2023/09/15 04:16:09;;;;;;;4.03;3.83;;;;;;;17.68;95.82;95641.91;4406766;32;20198;-62
2023/09/15 04:18:34;;;;;;;3.90;3.53;;;;;;;17.67;95.24;95642.22;4407054;32;20180;-62
2023/09/15 04:21:00;;;;;;;3.30;3.20;;;;;;;17.77;95.60;95642.63;4410558;32;20188;-62
2023/09/15 04:23:25;;;;;;;4.30;3.60;;;;;;;17.94;94.20;95647.03;4404633;32;20207;-62
2023/09/15 04:25:50;;;;;;;5.03;4.30;;;;;;;18.06;94.84;95644.38;4406185;32;20184;-62
2023/09/15 04:28:16;;;;;;;5.00;4.07;;;;;;;17.74;94.85;95643.28;4400751;32;20188;-65
2023/09/15 04:30:42;;;;;;;5.53;5.10;;;;;;;18.04;94.81;95646.63;4389330;32;20236;-65
2023/09/15 04:33:07;;;;;;;3.47;3.27;;;;;;;17.87;94.27;95636.06;4396333;32;20239;-64
2023/09/15 04:35:32;;;;;;;3.37;3.17;;;;;;;17.80;95.56;95641.97;4406104;32;20234;-64
2023/09/15 04:37:58;;;;;;;4.27;3.87;;;;;;;17.84;94.88;95642.88;4407882;32;20172;-65
2023/09/15 04:40:24;;;;;;;4.70;4.40;;;;;;;17.57;95.43;95643.41;4387395;32;20249;-64
2023/09/15 04:42:49;;;;;;;4.73;4.43;;;;;;;17.62;95.92;95643.22;4391868;32;20206;-65
2023/09/15 04:45:15;;;;;;;4.73;4.33;;;;;;;17.77;95.71;95645.31;4401124;32;20229;-65
2023/09/15 04:47:43;;;;;;;4.20;3.90;;;;;;;17.63;94.39;95644.78;4406384;32;20192;-65
2023/09/15 04:50:08;;;;;;;4.30;4.00;;;;;;;17.78;95.42;95643.41;4406223;32;20259;-64
2023/09/15 04:52:34;;;;;;;4.10;3.90;;;;;;;17.87;95.46;95646.00;4404945;32;20206;-64
2023/09/15 04:54:59;;;;;;;22.00;5.27;;;;;;;17.87;95.42;95643.31;4407512;32;20260;-64
2023/09/15 04:57:25;;;;;;;4.47;4.17;;;;;;;17.70;95.32;95637.00;4403182;32;20238;-64
2023/09/15 04:59:53;;;;;;;7.30;5.23;;;;;;;17.57;93.82;95643.41;4407577;32;20227;-64
2023/09/15 05:02:22;;;;;;;10.27;4.30;;;;;;;17.63;95.50;95642.09;4392728;32;20226;-65
2023/09/15 05:04:48;;;;;;;4.53;4.23;;;;;;;17.72;96.38;95644.72;4395150;32;20225;-65
2023/09/15 05:07:13;;;;;;;5.63;4.50;;;;;;;17.57;94.60;95648.00;4407068;32;20195;-64
2023/09/15 05:09:39;;;;;;;4.93;4.17;;;;;;;17.69;96.36;95646.16;4389073;32;20255;-64
2023/09/15 05:12:04;;;;;;;4.70;4.40;;;;;;;17.76;96.00;95649.09;4389790;32;20195;-64
2023/09/15 05:14:30;;;;;;;4.70;4.40;;;;;;;17.65;95.72;95645.28;4406165;32;20192;-65
2023/09/15 05:16:56;;;;;;;9.80;4.37;;;;;;;17.72;96.19;95642.03;4388774;32;20188;-64
2023/09/15 05:19:21;;;;;;;3.80;3.50;;;;;;;17.84;96.59;95642.88;4400346;32;20251;-64
2023/09/15 05:21:50;;;;;;;4.93;4.60;;;;;;;17.84;95.56;95642.88;4404841;32;20187;-65
2023/09/15 05:24:15;;;;;;;4.33;4.07;;;;;;;17.87;95.35;95644.13;4389941;32;20195;-65
2023/09/15 05:26:40;;;;;;;3.83;3.63;;;;;;;17.71;95.90;95651.19;4403858;32;20196;-64
2023/09/15 05:29:06;;;;;;;5.73;5.03;;;;;;;17.83;95.75;95651.25;4399957;32;20268;-65
2023/09/15 05:31:31;;;;;;;2.67;2.57;;;;;;;17.96;94.92;95654.75;4392059;32;20206;-62
2023/09/15 05:33:57;;;;;;;4.60;4.17;;;;;;;17.96;94.77;95652.84;4390524;32;20188;-62
2023/09/15 05:36:23;;;;;;;13.77;4.50;;;;;;;17.79;94.22;95663.75;4404471;32;20271;-62
2023/09/15 05:38:48;;;;;;;15.00;4.20;;;;;;;17.84;94.16;95660.88;4403171;32;20184;-62
2023/09/15 05:41:14;;;;;;;5.47;5.00;;;;;;;17.89;94.52;95649.13;4400315;32;20195;-62
2023/09/15 05:43:40;;;;;;;3.60;3.40;;;;;;;17.77;94.27;95653.34;4405620;32;20192;-62
2023/09/15 05:46:06;;;;;;;4.07;3.87;;;;;;;17.84;94.20;95653.59;4391187;32;20253;-64
2023/09/15 05:48:31;;;;;;;4.83;4.43;;;;;;;17.62;94.85;95658.53;4403573;32;20192;-64
2023/09/15 05:50:56;;;;;;;4.43;4.13;;;;;;;17.69;94.52;95648.84;4403635;32;20195;-64
2023/09/15 05:53:22;;;;;;;3.17;2.97;;;;;;;17.87;95.00;95651.38;4405322;32;20251;-64
2023/09/15 05:55:47;;;;;;;4.03;3.83;;;;;;;17.68;94.82;95647.28;4402547;32;20197;-64
2023/09/15 05:58:13;;;;;;;4.50;4.20;;;;;;;17.52;94.62;95652.44;4405078;32;20239;-64
2023/09/15 06:00:39;;;;;;;2.87;2.77;;;;;;;17.59;95.47;95651.91;4404460;32;20187;-64
2023/09/15 06:03:05;;;;;;;5.07;4.67;;;;;;;17.65;95.43;95656.00;4398724;32;20250;-62
2023/09/15 06:05:30;;;;;;;5.13;4.27;;;;;;;17.49;94.93;95646.94;4400228;32;20192;-62
2023/09/15 06:07:55;;;;;;;4.17;3.87;;;;;;;17.72;94.52;95650.09;4413420;32;20232;-62
2023/09/15 06:10:21;;;;;;;8.83;4.73;;;;;;;17.76;94.39;95651.78;4405694;32;20200;-62
2023/09/15 06:12:50;;;;;;;4.20;4.00;;;;;;;17.85;94.04;95638.28;4391343;32;20210;-62
2023/09/15 06:15:16;;;;;;;4.10;3.87;;;;;;;17.70;94.19;95649.63;4408036;32;20230;-62
2023/09/15 06:17:41;;;;;;;4.97;4.47;;;;;;;17.87;94.30;95646.78;4408953;32;20188;-63
2023/09/15 06:20:07;;;;;;;4.33;4.00;;;;;;;17.84;93.81;95648.25;4403643;32;20188;-62
2023/09/15 06:22:34;;;;;;;4.60;4.30;;;;;;;17.87;94.41;95642.19;4407225;32;20184;-62
2023/09/15 06:24:59;;;;;;;5.50;5.00;;;;;;;17.76;94.28;95641.03;4391795;32;20184;-63
2023/09/15 06:27:24;;;;;;;4.20;3.90;;;;;;;17.81;94.37;95637.38;4394730;32;20232;-62
2023/09/15 06:29:52;;;;;;;4.27;3.97;;;;;;;17.78;94.65;95649.56;4407896;32;20256;-62
2023/09/15 06:32:18;;;;;;;5.50;5.10;;;;;;;17.77;94.53;95644.50;4406900;32;20191;-62
2023/09/15 06:34:43;;;;;;;4.57;4.27;;;;;;;17.68;94.37;95647.28;4406395;32;20180;-62
2023/09/15 06:37:08;;;;;;;4.97;4.57;;;;;;;17.72;94.52;95653.56;4407165;32;20228;-65
2023/09/15 06:39:35;;;;;;;4.50;4.20;;;;;;;17.73;94.92;95648.97;4395234;32;20222;-64
2023/09/15 06:42:01;;;;;;;4.67;4.37;;;;;;;17.73;95.14;95652.44;4407768;32;20203;-65
2023/09/15 06:44:27;;;;;;;4.80;4.50;;;;;;;17.98;94.17;95649.84;4410314;32;20225;-65
2023/09/15 06:46:52;;;;;;;4.53;3.67;;;;;;;17.94;93.81;95656.97;4406641;32;20279;-65
2023/09/15 06:49:21;;;;;;;6.23;5.53;;;;;;;18.10;93.62;95634.53;4407286;32;20180;-65
2023/09/15 06:51:50;;;;;;;4.70;4.40;;;;;;;18.08;92.21;95646.75;4386882;32;20250;-65
2023/09/15 06:54:15;;;;;;;4.50;4.13;;;;;;;17.94;93.46;95651.59;4376314;32;20194;-65
2023/09/15 06:56:40;;;;;;;3.97;3.67;;;;;;;18.08;92.95;95649.41;4396693;32;20180;-65
2023/09/15 06:59:06;;;;;;;3.97;3.60;;;;;;;18.12;93.14;95656.47;4407494;32;20249;-63
2023/09/15 07:01:31;;;;;;;4.87;4.47;;;;;;;18.04;93.29;95651.97;4397348;32;20192;-63
2023/09/15 07:03:56;;;;;;;4.00;3.80;;;;;;;18.03;92.93;95652.31;4395622;32;20284;-62
2023/09/15 07:06:22;;;;;;;3.87;3.60;;;;;;;17.97;93.91;95649.03;4405583;32;20222;-63
2023/09/15 07:08:49;;;;;;;4.03;3.83;;;;;;;18.19;93.87;95656.69;4393046;32;20188;-64
2023/09/15 07:11:15;;;;;;;4.07;3.87;;;;;;;18.28;93.51;95656.63;4403818;32;20225;-62
2023/09/15 07:13:40;;;;;;;4.23;3.93;;;;;;;18.08;93.03;95654.78;4409284;32;20196;-63
2023/09/15 07:16:05;;;;;;;4.97;3.90;;;;;;;18.03;93.35;95649.63;4402873;32;20223;-62
2023/09/15 07:18:31;;;;;;;3.37;3.27;;;;;;;18.30;93.63;95650.88;4410821;32;20188;-62
2023/09/15 07:20:56;;;;;;;2.97;2.77;;;;;;;18.03;93.03;95646.94;4412818;32;20195;-63
2023/09/15 07:23:22;;;;;;;7.60;5.03;;;;;;;18.34;93.72;95649.09;4408381;32;20214;-62
2023/09/15 07:25:47;;;;;;;2.67;2.57;;;;;;;18.21;93.41;95648.31;4407971;32;20202;-62
2023/09/15 07:28:13;;;;;;;4.40;4.10;;;;;;;18.44;93.32;95637.94;4407809;32;20202;-62
2023/09/15 07:30:38;;;;;;;3.57;3.23;;;;;;;18.31;93.39;95644.41;4409658;32;20299;-63
2023/09/15 07:33:03;;;;;;;3.43;3.23;;;;;;;18.49;93.06;95641.19;4404429;32;20236;-62
2023/09/15 07:35:29;;;;;;;3.50;3.20;;;;;;;18.49;92.12;95638.50;4414900;32;20192;-62
2023/09/15 07:37:55;;;;;;;4.07;3.80;;;;;;;18.61;92.46;95639.63;4388335;32;20192;-62
2023/09/15 07:40:22;;;;;;;3.23;3.13;;;;;;;18.70;91.81;95645.69;4405042;32;20200;-62
2023/09/15 07:42:48;;;;;;;2.77;2.67;;;;;;;18.40;89.77;95653.94;4392279;32;20241;-63
2023/09/15 07:45:14;;;;;;;5.60;3.73;;;;;;;18.39;91.57;95652.38;4404893;32;20240;-63
2023/09/15 07:47:39;;;;;;;3.17;3.03;;;;;;;18.38;92.19;95658.06;4396300;32;20206;-62
2023/09/15 07:50:05;;;;;;;2.77;2.60;;;;;;;18.51;92.52;95649.66;4395637;32;20203;-62
2023/09/15 07:52:31;;;;;;;2.87;2.77;;;;;;;18.63;92.73;95653.53;4393858;32;20204;-62
2023/09/15 07:54:56;;;;;;;2.60;2.50;;;;;;;18.69;92.16;95661.03;4405227;32;20223;-62
2023/09/15 07:57:21;;;;;;;3.13;2.93;;;;;;;18.52;90.50;95655.84;4405960;32;20227;-61
2023/09/15 07:59:47;;;;;;;3.00;2.87;;;;;;;18.62;91.37;95662.72;4409428;32;20200;-61
2023/09/15 08:02:13;;;;;;;2.83;2.63;;;;;;;18.66;91.06;95666.31;4393364;32;20197;-62
2023/09/15 08:04:39;;;;;;;2.27;2.17;;;;;;;18.78;90.34;95656.31;4392659;32;20188;-63
2023/09/15 08:07:06;;;;;;;3.50;3.23;;;;;;;18.78;90.52;95675.12;4394579;32;20210;-63
2023/09/15 08:09:31;;;;;;;3.13;3.00;;;;;;;18.81;89.46;95668.31;4405193;32;20236;-63
2023/09/15 08:11:59;;;;;;;4.43;2.57;;;;;;;18.66;91.91;95667.09;4405473;32;20196;-63
2023/09/15 08:14:25;;;;;;;2.97;2.87;;;;;;;18.79;91.56;95665.16;4411195;32;20237;-63
2023/09/15 08:16:51;;;;;;;2.90;2.77;;;;;;;18.87;90.45;95666.97;4400369;32;20243;-63
2023/09/15 08:19:17;;;;;;;3.67;3.47;;;;;;;18.83;90.17;95661.47;4404359;32;20281;-63
2023/09/15 08:21:43;;;;;;;3.30;3.10;;;;;;;18.99;88.64;95658.88;4407410;32;20200;-63
2023/09/15 08:24:08;;;;;;;3.07;2.87;;;;;;;18.92;88.86;95655.97;4408789;32;20229;-63
2023/09/15 08:26:33;;;;;;;3.40;3.10;;;;;;;18.95;88.79;95663.34;4407061;32;20192;-63
2023/09/15 08:28:58;;;;;;;2.40;2.30;;;;;;;19.12;89.08;95662.34;4394972;32;20201;-63
2023/09/15 08:31:25;;;;;;;3.00;2.80;;;;;;;19.08;89.29;95662.25;4391281;32;20196;-63
2023/09/15 08:33:52;;;;;;;2.60;2.40;;;;;;;19.23;88.85;95666.91;4404786;32;20264;-63
2023/09/15 08:36:18;;;;;;;1.67;1.67;;;;;;;19.15;88.27;95662.44;4408443;32;20196;-63
2023/09/15 08:38:43;;;;;;;2.13;2.03;;;;;;;19.38;88.60;95656.56;4402921;32;20188;-65
2023/09/15 08:41:24;;;;;;;3.50;2.33;;;;;;;19.45;87.85;95662.16;4388425;32;20192;-63
2023/09/15 08:43:51;;;;;;;2.50;2.40;;;;;;;19.34;87.02;95664.50;4387781;32;20213;-63
2023/09/15 08:46:18;;;;;;;3.27;3.07;;;;;;;19.35;87.44;95665.31;4390890;32;20202;-63
2023/09/15 08:48:49;;;;;;;2.07;1.97;;;;;;;19.28;87.58;95654.34;4383213;32;20211;-63
2023/09/15 08:51:15;;;;;;;2.30;2.20;;;;;;;19.36;86.54;95648.81;4377347;32;20216;-63
2023/09/15 08:53:41;;;;;;;2.60;2.50;;;;;;;19.35;86.83;95636.47;4368120;32;20197;-63
2023/09/15 08:56:08;;;;;;;2.90;2.70;;;;;;;19.30;86.84;95644.81;4356809;32;20247;-63
2023/09/15 08:58:34;;;;;;;2.70;2.60;;;;;;;19.27;86.45;95650.09;4355423;32;20240;-64
2023/09/15 09:01:01;;;;;;;2.87;2.33;;;;;;;19.22;86.23;95646.50;4370710;32;20211;-62
2023/09/15 09:03:27;;;;;;;3.73;3.27;;;;;;;19.27;88.13;95653.56;4392665;32;20211;-62
2023/09/15 09:05:55;;;;;;;2.27;2.10;;;;;;;19.28;87.25;95643.59;4389861;32;20204;-61
2023/09/15 09:08:23;;;;;;;1.80;1.70;;;;;;;19.33;87.27;95656.81;4389440;32;20228;-62
2023/09/15 09:10:49;;;;;;;2.23;2.13;;;;;;;19.40;87.73;95646.22;4390600;32;20192;-62
2023/09/15 09:13:15;;;;;;;4.83;3.20;;;;;;;19.41;87.90;95650.50;4402088;32;20256;-62
2023/09/15 09:15:42;;;;;;;2.67;2.50;;;;;;;19.38;87.14;95645.78;4389804;32;20184;-61
2023/09/15 09:18:18;;;;;;;2.73;2.63;;;;;;;19.37;86.59;95645.00;4388790;32;20196;-61
2023/09/15 09:20:46;;;;;;;2.23;2.13;;;;;;;19.42;86.34;95650.16;4389316;32;20250;-61
2023/09/15 09:23:12;;;;;;;2.13;2.03;;;;;;;19.51;86.92;95647.38;4391678;32;20185;-61
2023/09/15 09:25:39;;;;;;;2.40;2.30;;;;;;;19.45;87.27;95648.69;4394201;32;20246;-61
2023/09/15 09:28:05;;;;;;;2.60;2.50;;;;;;;19.43;86.84;95650.94;4394146;32;20207;-62
2023/09/15 09:30:31;;;;;;;2.77;2.60;;;;;;;19.47;87.06;95652.59;4409658;32;20252;-62
2023/09/15 09:32:57;;;;;;;2.50;2.40;;;;;;;19.31;86.33;95651.78;4393822;32;20230;-64
2023/09/15 09:35:23;;;;;;;2.67;2.57;;;;;;;19.35;87.72;95654.53;4396934;32;20192;-62
2023/09/15 09:37:49;;;;;;;2.80;2.50;;;;;;;19.45;85.85;95654.06;4395443;32;20180;-62
2023/09/15 09:40:18;;;;;;;2.57;2.37;;;;;;;19.50;85.07;95646.56;4425057;27;20247;-60
2023/09/15 09:42:45;;;;;;;2.40;2.30;;;;;;;19.38;85.26;95648.47;4381379;32;20223;-61
2023/09/15 09:45:17;;;;;;;1.30;1.23;;;;;;;19.46;85.65;95653.72;4374831;32;20231;-60
2023/09/15 09:47:45;;;;;;;1.90;1.80;;;;;;;19.41;85.83;95647.81;4384139;32;20189;-60
2023/09/15 09:50:33;;;;;;;3.40;3.20;;;;;;;19.53;85.33;95642.44;4318490;32;20202;-60
2023/09/15 09:53:07;;;;;;;3.13;2.97;;;;;;;19.57;86.40;95643.28;4360285;32;20344;-60
2023/09/15 09:55:35;;;;;;;5.03;3.03;;;;;;;19.67;84.32;95640.13;4342235;32;20192;-60
2023/09/15 09:58:06;;;;;;;2.93;2.73;;;;;;;19.70;85.92;95636.75;4364300;32;20198;-61
2023/09/15 10:00:36;;;;;;;2.17;2.07;;;;;;;19.77;85.01;95636.91;4394173;32;20241;-62
2023/09/15 10:03:02;;;;;;;2.10;2.00;;;;;;;19.78;85.04;95641.19;4339238;32;20240;-61
2023/09/15 10:05:33;;;;;;;2.03;1.93;;;;;;;19.90;85.67;95630.34;4397272;32;20188;-60
2023/09/15 10:07:59;;;;;;;3.57;2.63;;;;;;;19.88;83.67;95629.12;4385172;32;20241;-61
2023/09/15 10:10:26;;;;;;;3.20;3.00;;;;;;;19.79;84.78;95623.88;4385319;32;20279;-62
2023/09/15 10:12:55;;;;;;;2.10;2.00;;;;;;;19.74;84.00;95624.16;4374861;32;20189;-60
2023/09/15 10:15:24;;;;;;;1.73;1.70;;;;;;;19.88;82.36;95623.75;4364676;32;20212;-61
2023/09/15 10:17:51;;;;;;;2.93;2.73;;;;;;;19.87;83.03;95627.56;4381345;32;20200;-61
2023/09/15 10:20:18;;;;;;;2.90;2.77;;;;;;;19.91;82.04;95625.75;4388105;32;20218;-61
2023/09/15 10:22:46;;;;;;;2.90;2.80;;;;;;;19.89;82.07;95620.72;4364052;32;20236;-61
2023/09/15 10:25:21;;;;;;;2.00;1.90;;;;;;;19.85;82.50;95619.84;4391369;32;20211;-61
2023/09/15 10:27:48;;;;;;;3.30;2.73;;;;;;;19.84;82.77;95626.34;4367674;32;20239;-62
2023/09/15 10:30:14;;;;;;;1.90;1.90;;;;;;;20.01;81.44;95622.53;4350484;32;20193;-61
2023/09/15 10:32:43;;;;;;;5.43;3.13;;;;;;;19.99;82.09;95624.78;4375597;32;20204;-62
2023/09/15 10:35:12;;;;;;;2.13;2.13;;;;;;;19.99;81.85;95615.94;4345578;32;20204;-61
2023/09/15 10:37:42;;;;;;;2.20;2.10;;;;;;;20.15;80.35;95616.75;4355289;32;20204;-62
2023/09/15 10:40:12;;;;;;;2.10;2.00;;;;;;;20.07;80.87;95612.31;4363091;32;20249;-61
2023/09/15 10:42:52;;;;;;;2.53;2.43;;;;;;;20.08;81.22;95613.88;4375464;32;20252;-62
2023/09/15 10:45:19;;;;;;;2.27;2.17;;;;;;;20.04;82.36;95610.28;4373347;32;20200;-61
2023/09/15 10:47:58;;;;;;;2.30;2.10;;;;;;;20.22;80.27;95606.13;4408655;32;20211;-61
2023/09/15 10:50:36;;;;;;;2.73;2.53;;;;;;;20.23;79.63;95608.47;4354801;32;20278;-60
2023/09/15 10:53:08;;;;;;;2.30;2.20;;;;;;;20.25;79.76;95602.75;4401506;32;20199;-61
2023/09/15 10:55:40;;;;;;;2.93;2.80;;;;;;;20.23;81.12;95602.31;4379738;32;20214;-60
2023/09/15 10:58:09;;;;;;;11.83;2.43;;;;;;;20.28;80.41;95596.66;4385307;32;20277;-61
2023/09/15 11:00:42;;;;;;;1.97;1.87;;;;;;;20.38;79.62;95590.75;4394081;32;20192;-61
2023/09/15 11:03:09;;;;;;;1.63;1.63;;;;;;;20.37;79.41;95581.09;4406645;32;20186;-63
2023/09/15 11:05:38;;;;;;;2.27;2.07;;;;;;;20.25;80.70;95578.50;4406402;32;20213;-60
2023/09/15 11:08:09;;;;;;;2.60;2.33;;;;;;;20.33;79.97;95582.94;4405696;32;20191;-59
2023/09/15 11:10:34;;;;;;;1.80;1.47;;;;;;;20.49;79.01;95570.25;4389118;32;20192;-63
2023/09/15 11:13:03;;;;;;;1.80;1.80;;;;;;;20.65;76.02;95574.81;4363296;32;20227;-60
2023/09/15 11:15:31;;;;;;;1.40;1.30;;;;;;;20.74;76.57;95572.72;4359503;32;20184;-61
2023/09/15 11:17:58;;;;;;;1.23;1.23;;;;;;;20.72;77.05;95569.59;4407362;32;20203;-59
2023/09/15 11:20:25;;;;;;;1.37;1.37;;;;;;;20.65;78.17;95566.72;4393396;32;20234;-61
2023/09/15 11:22:58;;;;;;;2.03;1.93;;;;;;;20.58;79.67;95570.03;4405558;32;20192;-60
2023/09/15 11:25:25;;;;;;;1.67;1.60;;;;;;;20.67;78.42;95569.88;4344623;32;20262;-60
2023/09/15 11:27:53;;;;;;;2.37;2.17;;;;;;;20.69;78.58;95575.69;4359448;32;20248;-61
2023/09/15 11:30:25;;;;;;;1.80;1.70;;;;;;;20.73;77.61;95568.47;4382204;32;20255;-60
2023/09/15 11:32:52;;;;;;;2.20;2.07;;;;;;;20.86;77.46;95578.00;4361846;32;20189;-61
2023/09/15 11:35:20;;;;;;;1.17;1.17;;;;;;;20.92;77.38;95565.78;4386348;32;20183;-60